EZY21VA LIMC-EGKK
Flight info
| Callsign | EZY21VA |
|---|---|
| Flight time | N/A |
| Altitude | 34000 |
| Route | AOSTA DCT ORSUD DCT MOLUS DCT IBODI DCT GOTED DCT TRO DCT CLM DCT KOPOR DCT KESAX DCT KUNAV |
| Aircraft | A320/M-SDE3FGHIRWY/LB1 |
Departure
| Time | 2026-05-01 14:54 |
|---|---|
| Airport | Milan Malpensa International Airport (LIMC) |
Arrival
| Time | N/A |
|---|---|
| Airport | London Gatwick Airport (EGKK) |
| Time | Latitude | Longitude | Altitude | Speed | Heading |
|---|---|---|---|---|---|
| 2026-05-01 13:59 | 45.64653 | 8.72491 | 750 ft | 0 kts | 258° |
| 2026-05-01 14:43 | 45.64654 | 8.72496 | 752 ft | 0 kts | 258° |
| 2026-05-01 14:43 | 45.64653 | 8.72495 | 752 ft | 0 kts | 258° |
| 2026-05-01 14:44 | 45.64653 | 8.72494 | 752 ft | 0 kts | 258° |
| 2026-05-01 14:44 | 45.64659 | 8.72532 | 748 ft | 2 kts | 257° |
| 2026-05-01 14:44 | 45.64663 | 8.72555 | 750 ft | 2 kts | 257° |
| 2026-05-01 14:45 | 45.64666 | 8.72580 | 751 ft | 2 kts | 233° |
| 2026-05-01 14:45 | 45.64695 | 8.72595 | 749 ft | 0 kts | 167° |
| 2026-05-01 14:46 | 45.64693 | 8.72596 | 748 ft | 3 kts | 166° |
| 2026-05-01 14:46 | 45.64580 | 8.72629 | 749 ft | 24 kts | 169° |
| 2026-05-01 14:47 | 45.64460 | 8.72618 | 749 ft | 8 kts | 258° |
| 2026-05-01 14:47 | 45.64459 | 8.72509 | 752 ft | 15 kts | 262° |
| 2026-05-01 14:47 | 45.64361 | 8.72443 | 752 ft | 25 kts | 168° |
| 2026-05-01 14:48 | 45.63999 | 8.72551 | 752 ft | 28 kts | 167° |
| 2026-05-01 14:48 | 45.63807 | 8.72609 | 748 ft | 29 kts | 169° |
| 2026-05-01 14:48 | 45.63408 | 8.72719 | 751 ft | 30 kts | 168° |
| 2026-05-01 14:49 | 45.62994 | 8.72830 | 750 ft | 31 kts | 169° |
| 2026-05-01 14:49 | 45.62571 | 8.72944 | 753 ft | 31 kts | 169° |
| 2026-05-01 14:50 | 45.62282 | 8.73026 | 749 ft | 32 kts | 169° |
| 2026-05-01 14:50 | 45.61748 | 8.73198 | 750 ft | 18 kts | 138° |
| 2026-05-01 14:51 | 45.61689 | 8.73314 | 753 ft | 12 kts | 124° |
| 2026-05-01 14:51 | 45.61635 | 8.73428 | 750 ft | 0 kts | 124° |
| 2026-05-01 14:52 | 45.61613 | 8.73475 | 752 ft | 9 kts | 124° |
| 2026-05-01 14:52 | 45.61634 | 8.73729 | 743 ft | 20 kts | 7° |
| 2026-05-01 14:53 | 45.61814 | 8.73683 | 743 ft | 49 kts | 348° |
| 2026-05-01 14:53 | 45.62391 | 8.73523 | 748 ft | 117 kts | 349° |
| 2026-05-01 14:53 | 45.63374 | 8.73253 | 745 ft | 168 kts | 349° |
| 2026-05-01 14:53 | 45.64527 | 8.72933 | 1310 ft | 169 kts | 349° |
| 2026-05-01 14:54 | 45.65709 | 8.72666 | 1951 ft | 176 kts | 352° |
| 2026-05-01 14:54 | 45.67007 | 8.72604 | 2374 ft | 197 kts | 360° |
| 2026-05-01 14:54 | 45.68468 | 8.72606 | 2733 ft | 227 kts | 0° |
| 2026-05-01 14:54 | 45.70085 | 8.72605 | 3598 ft | 233 kts | 360° |
| 2026-05-01 14:55 | 45.71705 | 8.72449 | 4445 ft | 236 kts | 342° |
| 2026-05-01 14:55 | 45.73034 | 8.71126 | 5247 ft | 239 kts | 304° |
| 2026-05-01 14:55 | 45.73534 | 8.68887 | 6033 ft | 241 kts | 267° |
| 2026-05-01 14:55 | 45.73135 | 8.66559 | 6829 ft | 243 kts | 250° |
| 2026-05-01 14:56 | 45.72554 | 8.64274 | 7603 ft | 246 kts | 250° |
| 2026-05-01 14:56 | 45.71959 | 8.61961 | 8382 ft | 249 kts | 250° |
| 2026-05-01 14:56 | 45.71259 | 8.59672 | 9147 ft | 256 kts | 240° |
| 2026-05-01 14:56 | 45.70282 | 8.57408 | 9509 ft | 279 kts | 238° |
| 2026-05-01 14:57 | 45.69223 | 8.55004 | 10125 ft | 290 kts | 238° |
| 2026-05-01 14:57 | 45.66951 | 8.49888 | 10952 ft | 327 kts | 238° |
| 2026-05-01 14:57 | 45.65700 | 8.47097 | 11447 ft | 338 kts | 238° |
| 2026-05-01 14:58 | 45.64418 | 8.44237 | 12113 ft | 345 kts | 237° |
| 2026-05-01 14:58 | 45.63117 | 8.41332 | 12828 ft | 349 kts | 236° |
| 2026-05-01 14:58 | 45.61612 | 8.38582 | 13559 ft | 353 kts | 230° |
| 2026-05-01 14:58 | 45.60131 | 8.35756 | 14257 ft | 358 kts | 239° |
| 2026-05-01 14:59 | 45.59130 | 8.32492 | 14869 ft | 362 kts | 254° |
| 2026-05-01 14:59 | 45.58727 | 8.28929 | 15478 ft | 366 kts | 269° |
| 2026-05-01 14:59 | 45.58972 | 8.25313 | 16091 ft | 368 kts | 284° |
| 2026-05-01 14:59 | 45.59707 | 8.21798 | 16701 ft | 371 kts | 289° |
| 2026-05-01 15:00 | 45.61068 | 8.15938 | 17765 ft | 377 kts | 290° |
| 2026-05-01 15:00 | 45.61918 | 8.12375 | 18366 ft | 381 kts | 290° |
| 2026-05-01 15:00 | 45.62773 | 8.08779 | 18933 ft | 384 kts | 290° |
| 2026-05-01 15:01 | 45.63906 | 8.03956 | 19656 ft | 388 kts | 289° |
| 2026-05-01 15:01 | 45.64481 | 8.01478 | 20040 ft | 390 kts | 289° |
| 2026-05-01 15:01 | 45.65329 | 7.97785 | 20614 ft | 392 kts | 289° |
| 2026-05-01 15:01 | 45.66178 | 7.94068 | 21174 ft | 395 kts | 289° |
| 2026-05-01 15:02 | 45.67030 | 7.90324 | 21751 ft | 397 kts | 289° |
| 2026-05-01 15:02 | 45.67597 | 7.87836 | 22132 ft | 399 kts | 289° |
| 2026-05-01 15:02 | 45.68757 | 7.82778 | 22876 ft | 402 kts | 289° |
| 2026-05-01 15:02 | 45.69633 | 7.78957 | 23370 ft | 406 kts | 289° |
| 2026-05-01 15:03 | 45.70511 | 7.75114 | 23897 ft | 408 kts | 289° |
| 2026-05-01 15:03 | 45.71393 | 7.71236 | 24323 ft | 411 kts | 289° |
| 2026-05-01 15:03 | 45.72276 | 7.67340 | 24747 ft | 413 kts | 288° |
| 2026-05-01 15:03 | 45.73159 | 7.63422 | 25177 ft | 415 kts | 289° |
| 2026-05-01 15:04 | 45.74044 | 7.59482 | 25592 ft | 417 kts | 288° |
| 2026-05-01 15:04 | 45.74935 | 7.55527 | 26002 ft | 418 kts | 289° |
| 2026-05-01 15:04 | 45.75820 | 7.51609 | 26388 ft | 420 kts | 288° |
| 2026-05-01 15:04 | 45.76721 | 7.47619 | 26693 ft | 422 kts | 288° |
| 2026-05-01 15:05 | 45.77623 | 7.43613 | 27069 ft | 424 kts | 288° |
| 2026-05-01 15:05 | 45.78657 | 7.39592 | 27439 ft | 426 kts | 295° |
| 2026-05-01 15:05 | 45.80103 | 7.35952 | 27808 ft | 427 kts | 306° |
| 2026-05-01 15:05 | 45.81990 | 7.32675 | 28196 ft | 428 kts | 315° |
| 2026-05-01 15:06 | 45.84253 | 7.29890 | 28525 ft | 430 kts | 324° |
| 2026-05-01 15:06 | 45.86705 | 7.27406 | 28867 ft | 432 kts | 324° |
| 2026-05-01 15:06 | 45.89165 | 7.24915 | 29224 ft | 433 kts | 324° |
| 2026-05-01 15:06 | 45.91635 | 7.22408 | 29543 ft | 436 kts | 324° |
| 2026-05-01 15:07 | 45.94110 | 7.19889 | 29902 ft | 437 kts | 324° |
| 2026-05-01 15:07 | 45.96594 | 7.17355 | 30219 ft | 439 kts | 324° |
| 2026-05-01 15:07 | 45.99090 | 7.14803 | 30445 ft | 441 kts | 324° |
| 2026-05-01 15:07 | 46.01596 | 7.12231 | 30659 ft | 444 kts | 323° |
| 2026-05-01 15:08 | 46.04117 | 7.09635 | 30845 ft | 447 kts | 324° |
| 2026-05-01 15:08 | 46.06654 | 7.07024 | 31089 ft | 448 kts | 323° |
| 2026-05-01 15:08 | 46.09194 | 7.04413 | 31332 ft | 449 kts | 323° |
| 2026-05-01 15:08 | 46.11742 | 7.01796 | 31578 ft | 450 kts | 323° |
| 2026-05-01 15:09 | 46.14285 | 6.99180 | 31934 ft | 448 kts | 323° |
| 2026-05-01 15:09 | 46.16817 | 6.96574 | 32262 ft | 447 kts | 323° |
| 2026-05-01 15:09 | 46.19348 | 6.93964 | 32574 ft | 447 kts | 323° |
| 2026-05-01 15:09 | 46.21882 | 6.91345 | 32883 ft | 447 kts | 323° |
| 2026-05-01 15:10 | 46.24406 | 6.88734 | 33199 ft | 446 kts | 323° |
| 2026-05-01 15:10 | 46.29435 | 6.83521 | 33868 ft | 444 kts | 323° |
| 2026-05-01 15:10 | 46.31942 | 6.80922 | 34214 ft | 443 kts | 323° |
| 2026-05-01 15:11 | 46.34438 | 6.78331 | 34548 ft | 440 kts | 323° |
| 2026-05-01 15:11 | 46.39394 | 6.73165 | 35043 ft | 440 kts | 323° |
| 2026-05-01 15:11 | 46.41878 | 6.70571 | 35231 ft | 441 kts | 323° |
| 2026-05-01 15:12 | 46.44323 | 6.67887 | 35453 ft | 440 kts | 317° |
| 2026-05-01 15:12 | 46.48610 | 6.61593 | 35912 ft | 438 kts | 313° |
| 2026-05-01 15:12 | 46.50716 | 6.58400 | 36136 ft | 437 kts | 313° |
| 2026-05-01 15:13 | 46.56995 | 6.48884 | 36260 ft | 432 kts | 313° |
| 2026-05-01 15:14 | 46.61141 | 6.42597 | 36266 ft | 429 kts | 312° |
| 2026-05-01 15:14 | 46.67315 | 6.33187 | 36263 ft | 428 kts | 312° |
| 2026-05-01 15:15 | 46.75529 | 6.20623 | 36265 ft | 428 kts | 312° |
| 2026-05-01 15:16 | 46.83724 | 6.08004 | 36262 ft | 429 kts | 311° |
| 2026-05-01 15:18 | 46.93992 | 5.92214 | 36249 ft | 429 kts | 315° |
| 2026-05-01 15:19 | 47.04259 | 5.83185 | 36236 ft | 433 kts | 330° |
| 2026-05-01 15:19 | 47.12281 | 5.77002 | 36217 ft | 435 kts | 330° |
| 2026-05-01 15:20 | 47.20334 | 5.70779 | 36215 ft | 436 kts | 330° |
| 2026-05-01 15:21 | 47.25709 | 5.66610 | 36220 ft | 437 kts | 330° |
| 2026-05-01 15:21 | 47.31062 | 5.62456 | 36209 ft | 439 kts | 330° |
| 2026-05-01 15:22 | 47.39166 | 5.56143 | 36209 ft | 440 kts | 330° |
| 2026-05-01 15:22 | 47.44577 | 5.51913 | 36211 ft | 440 kts | 330° |
| 2026-05-01 15:23 | 47.49960 | 5.47584 | 36204 ft | 440 kts | 324° |
| 2026-05-01 15:23 | 47.54496 | 5.41622 | 36217 ft | 436 kts | 306° |
| 2026-05-01 15:24 | 47.58105 | 5.34427 | 36208 ft | 436 kts | 304° |
| 2026-05-01 15:24 | 47.61706 | 5.27194 | 36210 ft | 436 kts | 304° |
| 2026-05-01 15:25 | 47.65308 | 5.19944 | 36207 ft | 437 kts | 304° |
| 2026-05-01 15:25 | 47.68910 | 5.12673 | 36215 ft | 437 kts | 304° |
| 2026-05-01 15:26 | 47.72507 | 5.05368 | 36205 ft | 439 kts | 303° |
| 2026-05-01 15:26 | 47.76111 | 4.98028 | 36212 ft | 440 kts | 303° |
| 2026-05-01 15:27 | 47.79724 | 4.90672 | 36207 ft | 441 kts | 303° |
| 2026-05-01 15:28 | 47.85132 | 4.79606 | 36202 ft | 441 kts | 303° |
| 2026-05-01 15:28 | 47.88727 | 4.72206 | 36202 ft | 441 kts | 303° |
| 2026-05-01 15:29 | 47.94130 | 4.61084 | 36204 ft | 442 kts | 303° |
| 2026-05-01 15:30 | 48.01344 | 4.46136 | 36190 ft | 445 kts | 303° |
| 2026-05-01 15:31 | 48.12185 | 4.23542 | 36207 ft | 446 kts | 303° |
| 2026-05-01 15:32 | 48.19414 | 4.08403 | 36174 ft | 448 kts | 303° |
| 2026-05-01 15:34 | 48.31272 | 3.86648 | 36180 ft | 452 kts | 311° |